sensor_id;sensor_type;location;lat;lon;timestamp;temperature;humidity
8832;DHT22;4452;50.756;4.472;2023-05-16T00:00:40;8.70;99.90
8832;DHT22;4452;50.756;4.472;2023-05-16T00:03:05;8.60;99.90
8832;DHT22;4452;50.756;4.472;2023-05-16T00:05:31;8.60;99.90
8832;DHT22;4452;50.756;4.472;2023-05-16T00:07:57;8.80;99.90
8832;DHT22;4452;50.756;4.472;2023-05-16T00:10:23;8.50;99.90
8832;DHT22;4452;50.756;4.472;2023-05-16T00:12:48;8.40;99.90
8832;DHT22;4452;50.756;4.472;2023-05-16T00:15:16;8.30;99.90
8832;DHT22;4452;50.756;4.472;2023-05-16T00:17:42;8.40;99.90
8832;DHT22;4452;50.756;4.472;2023-05-16T00:20:11;8.40;99.90
8832;DHT22;4452;50.756;4.472;2023-05-16T00:22:39;8.40;99.90
8832;DHT22;4452;50.756;4.472;2023-05-16T00:25:05;8.30;99.90
8832;DHT22;4452;50.756;4.472;2023-05-16T00:27:33;8.30;99.90
8832;DHT22;4452;50.756;4.472;2023-05-16T00:30:00;8.20;99.90
8832;DHT22;4452;50.756;4.472;2023-05-16T00:32:26;8.10;99.90
8832;DHT22;4452;50.756;4.472;2023-05-16T00:34:51;8.10;99.90
8832;DHT22;4452;50.756;4.472;2023-05-16T00:37:17;8.10;99.90
8832;DHT22;4452;50.756;4.472;2023-05-16T00:39:43;8.10;99.90
8832;DHT22;4452;50.756;4.472;2023-05-16T00:42:08;8.10;99.90
8832;DHT22;4452;50.756;4.472;2023-05-16T00:44:34;8.00;99.90
8832;DHT22;4452;50.756;4.472;2023-05-16T00:47:00;8.00;99.90
8832;DHT22;4452;50.756;4.472;2023-05-16T00:49:27;7.90;99.90
8832;DHT22;4452;50.756;4.472;2023-05-16T00:51:54;8.10;99.90
8832;DHT22;4452;50.756;4.472;2023-05-16T00:54:21;7.90;99.90
8832;DHT22;4452;50.756;4.472;2023-05-16T00:56:47;7.90;99.90
8832;DHT22;4452;50.756;4.472;2023-05-16T00:59:14;7.90;99.90
8832;DHT22;4452;50.756;4.472;2023-05-16T01:01:40;7.80;99.90
8832;DHT22;4452;50.756;4.472;2023-05-16T01:04:06;8.10;99.90
8832;DHT22;4452;50.756;4.472;2023-05-16T01:06:33;7.70;99.90
8832;DHT22;4452;50.756;4.472;2023-05-16T01:08:59;7.90;99.90
8832;DHT22;4452;50.756;4.472;2023-05-16T01:14:55;7.70;99.90
8832;DHT22;4452;50.756;4.472;2023-05-16T01:20:07;7.60;99.90
8832;DHT22;4452;50.756;4.472;2023-05-16T01:22:49;7.60;99.90
8832;DHT22;4452;50.756;4.472;2023-05-16T01:28:06;7.50;99.90
8832;DHT22;4452;50.756;4.472;2023-05-16T01:30:34;7.60;99.90
8832;DHT22;4452;50.756;4.472;2023-05-16T01:33:00;7.50;99.90
8832;DHT22;4452;50.756;4.472;2023-05-16T01:35:26;7.40;99.90
8832;DHT22;4452;50.756;4.472;2023-05-16T01:43:32;7.30;99.90
8832;DHT22;4452;50.756;4.472;2023-05-16T01:46:09;7.60;99.90
8832;DHT22;4452;50.756;4.472;2023-05-16T01:48:49;7.30;99.90
8832;DHT22;4452;50.756;4.472;2023-05-16T01:51:16;7.70;99.90
8832;DHT22;4452;50.756;4.472;2023-05-16T01:53:42;7.70;99.90
8832;DHT22;4452;50.756;4.472;2023-05-16T01:56:14;7.50;99.90
8832;DHT22;4452;50.756;4.472;2023-05-16T01:58:40;7.20;99.90
8832;DHT22;4452;50.756;4.472;2023-05-16T02:01:06;7.20;99.90
8832;DHT22;4452;50.756;4.472;2023-05-16T02:03:32;7.40;99.90
8832;DHT22;4452;50.756;4.472;2023-05-16T02:05:58;7.10;99.90
8832;DHT22;4452;50.756;4.472;2023-05-16T02:08:25;7.00;99.90
8832;DHT22;4452;50.756;4.472;2023-05-16T02:10:52;6.90;99.90
8832;DHT22;4452;50.756;4.472;2023-05-16T02:13:18;7.00;99.90
8832;DHT22;4452;50.756;4.472;2023-05-16T02:15:44;6.90;99.90
8832;DHT22;4452;50.756;4.472;2023-05-16T02:18:10;7.00;99.90
8832;DHT22;4452;50.756;4.472;2023-05-16T02:20:37;7.40;99.90
8832;DHT22;4452;50.756;4.472;2023-05-16T02:23:02;6.90;99.90
8832;DHT22;4452;50.756;4.472;2023-05-16T02:25:28;7.30;99.90
8832;DHT22;4452;50.756;4.472;2023-05-16T02:27:54;7.10;99.90
8832;DHT22;4452;50.756;4.472;2023-05-16T02:30:20;6.80;99.90
8832;DHT22;4452;50.756;4.472;2023-05-16T02:32:46;7.00;99.90
8832;DHT22;4452;50.756;4.472;2023-05-16T02:35:13;7.00;99.90
8832;DHT22;4452;50.756;4.472;2023-05-16T02:37:39;6.80;99.90
8832;DHT22;4452;50.756;4.472;2023-05-16T02:40:06;6.70;99.90
8832;DHT22;4452;50.756;4.472;2023-05-16T02:42:32;6.80;99.90
8832;DHT22;4452;50.756;4.472;2023-05-16T02:44:58;7.10;99.90
8832;DHT22;4452;50.756;4.472;2023-05-16T02:47:24;6.70;99.90
8832;DHT22;4452;50.756;4.472;2023-05-16T02:49:49;6.70;99.90
8832;DHT22;4452;50.756;4.472;2023-05-16T02:52:17;6.70;99.90
8832;DHT22;4452;50.756;4.472;2023-05-16T02:54:43;6.70;99.90
8832;DHT22;4452;50.756;4.472;2023-05-16T02:57:08;6.70;99.90
8832;DHT22;4452;50.756;4.472;2023-05-16T02:59:34;6.80;99.90
8832;DHT22;4452;50.756;4.472;2023-05-16T03:02:00;6.80;99.90
8832;DHT22;4452;50.756;4.472;2023-05-16T03:04:26;6.80;99.90
8832;DHT22;4452;50.756;4.472;2023-05-16T03:06:52;6.60;99.90
8832;DHT22;4452;50.756;4.472;2023-05-16T03:09:17;6.70;99.90
8832;DHT22;4452;50.756;4.472;2023-05-16T03:11:44;6.80;99.90
8832;DHT22;4452;50.756;4.472;2023-05-16T03:14:10;6.90;99.90
8832;DHT22;4452;50.756;4.472;2023-05-16T03:16:36;6.60;99.90
8832;DHT22;4452;50.756;4.472;2023-05-16T03:19:03;6.40;99.90
8832;DHT22;4452;50.756;4.472;2023-05-16T03:21:29;6.60;99.90
8832;DHT22;4452;50.756;4.472;2023-05-16T03:23:56;6.60;99.90
8832;DHT22;4452;50.756;4.472;2023-05-16T03:26:26;6.60;99.90
8832;DHT22;4452;50.756;4.472;2023-05-16T03:28:52;6.60;99.90
8832;DHT22;4452;50.756;4.472;2023-05-16T03:31:17;6.60;99.90
8832;DHT22;4452;50.756;4.472;2023-05-16T03:33:44;6.60;99.90
8832;DHT22;4452;50.756;4.472;2023-05-16T03:36:09;6.50;99.90
8832;DHT22;4452;50.756;4.472;2023-05-16T03:38:35;6.50;99.90
8832;DHT22;4452;50.756;4.472;2023-05-16T03:41:01;6.50;99.90
8832;DHT22;4452;50.756;4.472;2023-05-16T03:43:27;6.50;99.90
8832;DHT22;4452;50.756;4.472;2023-05-16T03:45:53;6.50;99.90
8832;DHT22;4452;50.756;4.472;2023-05-16T03:48:19;6.60;99.90
8832;DHT22;4452;50.756;4.472;2023-05-16T03:50:45;6.60;99.90
8832;DHT22;4452;50.756;4.472;2023-05-16T03:53:12;6.50;99.90
8832;DHT22;4452;50.756;4.472;2023-05-16T03:55:37;6.50;99.90
8832;DHT22;4452;50.756;4.472;2023-05-16T03:58:03;6.50;99.90
8832;DHT22;4452;50.756;4.472;2023-05-16T04:00:29;6.50;99.90
8832;DHT22;4452;50.756;4.472;2023-05-16T04:02:55;6.40;99.90
8832;DHT22;4452;50.756;4.472;2023-05-16T04:05:21;6.40;99.90
8832;DHT22;4452;50.756;4.472;2023-05-16T04:07:46;6.50;99.90
8832;DHT22;4452;50.756;4.472;2023-05-16T04:10:13;6.40;99.90
8832;DHT22;4452;50.756;4.472;2023-05-16T04:12:38;6.40;99.90
8832;DHT22;4452;50.756;4.472;2023-05-16T04:15:05;6.30;99.90
8832;DHT22;4452;50.756;4.472;2023-05-16T04:17:31;6.30;99.90
8832;DHT22;4452;50.756;4.472;2023-05-16T04:19:57;6.30;99.90
8832;DHT22;4452;50.756;4.472;2023-05-16T04:22:23;6.40;99.90
8832;DHT22;4452;50.756;4.472;2023-05-16T04:24:49;6.40;99.90
8832;DHT22;4452;50.756;4.472;2023-05-16T04:27:15;6.30;99.90
8832;DHT22;4452;50.756;4.472;2023-05-16T04:29:41;6.30;99.90
8832;DHT22;4452;50.756;4.472;2023-05-16T04:32:07;6.40;99.90
8832;DHT22;4452;50.756;4.472;2023-05-16T04:34:33;6.40;99.90
8832;DHT22;4452;50.756;4.472;2023-05-16T04:37:03;6.40;99.90
8832;DHT22;4452;50.756;4.472;2023-05-16T04:39:30;6.50;99.90
8832;DHT22;4452;50.756;4.472;2023-05-16T04:41:56;6.60;99.90
8832;DHT22;4452;50.756;4.472;2023-05-16T04:44:24;6.60;99.90
8832;DHT22;4452;50.756;4.472;2023-05-16T04:46:51;6.70;99.90
8832;DHT22;4452;50.756;4.472;2023-05-16T04:49:21;6.70;99.90
8832;DHT22;4452;50.756;4.472;2023-05-16T04:51:47;6.70;99.90
8832;DHT22;4452;50.756;4.472;2023-05-16T04:54:13;6.80;99.90
8832;DHT22;4452;50.756;4.472;2023-05-16T04:56:39;6.90;99.90
8832;DHT22;4452;50.756;4.472;2023-05-16T04:59:05;6.90;99.90
8832;DHT22;4452;50.756;4.472;2023-05-16T05:01:31;7.00;99.90
8832;DHT22;4452;50.756;4.472;2023-05-16T05:03:57;7.00;99.90
8832;DHT22;4452;50.756;4.472;2023-05-16T05:06:22;7.10;99.90
8832;DHT22;4452;50.756;4.472;2023-05-16T05:08:48;7.20;99.90
8832;DHT22;4452;50.756;4.472;2023-05-16T05:11:15;7.30;99.90
8832;DHT22;4452;50.756;4.472;2023-05-16T05:13:41;7.40;99.90
8832;DHT22;4452;50.756;4.472;2023-05-16T05:16:07;7.50;99.90
8832;DHT22;4452;50.756;4.472;2023-05-16T05:18:33;7.60;99.90
8832;DHT22;4452;50.756;4.472;2023-05-16T05:20:59;7.70;99.90
8832;DHT22;4452;50.756;4.472;2023-05-16T05:23:24;7.80;99.90
8832;DHT22;4452;50.756;4.472;2023-05-16T05:25:50;7.90;99.90
8832;DHT22;4452;50.756;4.472;2023-05-16T05:28:16;8.00;99.90
8832;DHT22;4452;50.756;4.472;2023-05-16T05:30:42;8.10;99.90
8832;DHT22;4452;50.756;4.472;2023-05-16T05:33:10;8.10;99.90
8832;DHT22;4452;50.756;4.472;2023-05-16T05:35:36;8.20;99.90
8832;DHT22;4452;50.756;4.472;2023-05-16T05:38:02;8.20;99.90
8832;DHT22;4452;50.756;4.472;2023-05-16T05:40:28;8.30;99.90
8832;DHT22;4452;50.756;4.472;2023-05-16T05:42:55;8.50;99.90
8832;DHT22;4452;50.756;4.472;2023-05-16T05:45:24;8.50;99.90
8832;DHT22;4452;50.756;4.472;2023-05-16T05:47:55;8.60;99.90
8832;DHT22;4452;50.756;4.472;2023-05-16T05:50:22;8.70;99.90
8832;DHT22;4452;50.756;4.472;2023-05-16T05:52:48;8.80;99.90
8832;DHT22;4452;50.756;4.472;2023-05-16T05:55:14;8.90;99.90
8832;DHT22;4452;50.756;4.472;2023-05-16T05:57:39;9.00;99.90
8832;DHT22;4452;50.756;4.472;2023-05-16T06:00:05;8.90;99.90
8832;DHT22;4452;50.756;4.472;2023-05-16T06:02:31;9.00;99.90
8832;DHT22;4452;50.756;4.472;2023-05-16T06:04:57;9.10;99.90
8832;DHT22;4452;50.756;4.472;2023-05-16T06:07:23;9.30;99.90
8832;DHT22;4452;50.756;4.472;2023-05-16T06:09:49;9.40;99.90
8832;DHT22;4452;50.756;4.472;2023-05-16T06:12:14;9.50;99.90
8832;DHT22;4452;50.756;4.472;2023-05-16T06:14:41;9.50;99.90
8832;DHT22;4452;50.756;4.472;2023-05-16T06:17:06;9.40;99.90
8832;DHT22;4452;50.756;4.472;2023-05-16T06:19:32;9.60;99.90
8832;DHT22;4452;50.756;4.472;2023-05-16T06:21:58;9.50;99.90
8832;DHT22;4452;50.756;4.472;2023-05-16T06:24:23;9.70;99.90
8832;DHT22;4452;50.756;4.472;2023-05-16T06:26:49;9.70;99.90
8832;DHT22;4452;50.756;4.472;2023-05-16T06:29:15;9.70;99.90
8832;DHT22;4452;50.756;4.472;2023-05-16T06:31:41;9.70;99.90
8832;DHT22;4452;50.756;4.472;2023-05-16T06:34:07;10.00;99.90
8832;DHT22;4452;50.756;4.472;2023-05-16T06:36:33;10.00;99.90
8832;DHT22;4452;50.756;4.472;2023-05-16T06:38:59;10.10;99.90
8832;DHT22;4452;50.756;4.472;2023-05-16T06:41:24;10.30;99.90
8832;DHT22;4452;50.756;4.472;2023-05-16T06:43:51;10.30;99.90
8832;DHT22;4452;50.756;4.472;2023-05-16T06:46:16;10.30;99.90
8832;DHT22;4452;50.756;4.472;2023-05-16T06:48:42;10.20;99.90
8832;DHT22;4452;50.756;4.472;2023-05-16T06:51:08;10.20;99.90
8832;DHT22;4452;50.756;4.472;2023-05-16T06:53:34;10.20;99.90
8832;DHT22;4452;50.756;4.472;2023-05-16T06:56:01;10.40;99.90
8832;DHT22;4452;50.756;4.472;2023-05-16T06:58:26;10.40;99.90
8832;DHT22;4452;50.756;4.472;2023-05-16T07:00:52;10.50;99.90
8832;DHT22;4452;50.756;4.472;2023-05-16T07:03:18;10.50;99.90
8832;DHT22;4452;50.756;4.472;2023-05-16T07:05:43;10.60;99.90
8832;DHT22;4452;50.756;4.472;2023-05-16T07:08:09;10.70;99.90
8832;DHT22;4452;50.756;4.472;2023-05-16T07:10:37;10.90;99.90
8832;DHT22;4452;50.756;4.472;2023-05-16T07:13:02;11.10;99.90
8832;DHT22;4452;50.756;4.472;2023-05-16T07:15:29;11.10;99.90
8832;DHT22;4452;50.756;4.472;2023-05-16T07:17:55;11.10;99.90
8832;DHT22;4452;50.756;4.472;2023-05-16T07:20:21;11.00;99.90
8832;DHT22;4452;50.756;4.472;2023-05-16T07:22:49;10.90;99.90
8832;DHT22;4452;50.756;4.472;2023-05-16T07:25:18;10.90;99.90
8832;DHT22;4452;50.756;4.472;2023-05-16T07:27:46;11.30;99.90
8832;DHT22;4452;50.756;4.472;2023-05-16T07:30:15;11.30;99.90
8832;DHT22;4452;50.756;4.472;2023-05-16T07:32:43;11.40;99.90
8832;DHT22;4452;50.756;4.472;2023-05-16T07:35:12;11.50;99.90
8832;DHT22;4452;50.756;4.472;2023-05-16T07:37:39;11.00;99.90
8832;DHT22;4452;50.756;4.472;2023-05-16T07:40:07;11.50;99.90
8832;DHT22;4452;50.756;4.472;2023-05-16T07:42:33;11.70;99.90
8832;DHT22;4452;50.756;4.472;2023-05-16T07:44:58;11.50;99.90
8832;DHT22;4452;50.756;4.472;2023-05-16T07:47:24;11.50;99.90
8832;DHT22;4452;50.756;4.472;2023-05-16T07:49:50;11.60;99.90
8832;DHT22;4452;50.756;4.472;2023-05-16T07:52:16;11.70;99.90
8832;DHT22;4452;50.756;4.472;2023-05-16T07:54:41;12.00;99.90
8832;DHT22;4452;50.756;4.472;2023-05-16T07:57:07;11.80;99.90
8832;DHT22;4452;50.756;4.472;2023-05-16T07:59:33;11.70;99.90
8832;DHT22;4452;50.756;4.472;2023-05-16T08:01:59;11.70;99.90
8832;DHT22;4452;50.756;4.472;2023-05-16T08:04:26;11.90;99.90
8832;DHT22;4452;50.756;4.472;2023-05-16T08:06:51;11.90;99.90
8832;DHT22;4452;50.756;4.472;2023-05-16T08:09:17;11.70;99.90
8832;DHT22;4452;50.756;4.472;2023-05-16T08:11:43;11.40;99.90
8832;DHT22;4452;50.756;4.472;2023-05-16T08:14:10;11.20;99.90
8832;DHT22;4452;50.756;4.472;2023-05-16T08:16:36;11.20;99.90
8832;DHT22;4452;50.756;4.472;2023-05-16T08:19:02;11.20;99.90
8832;DHT22;4452;50.756;4.472;2023-05-16T08:21:27;11.20;99.90
8832;DHT22;4452;50.756;4.472;2023-05-16T08:23:53;11.30;99.90
8832;DHT22;4452;50.756;4.472;2023-05-16T08:26:19;11.20;99.90
8832;DHT22;4452;50.756;4.472;2023-05-16T08:28:46;11.20;99.90
8832;DHT22;4452;50.756;4.472;2023-05-16T08:31:12;11.20;99.90
8832;DHT22;4452;50.756;4.472;2023-05-16T08:33:37;11.00;99.90
8832;DHT22;4452;50.756;4.472;2023-05-16T08:36:03;10.90;99.90
8832;DHT22;4452;50.756;4.472;2023-05-16T08:38:29;10.90;99.90
8832;DHT22;4452;50.756;4.472;2023-05-16T08:40:55;11.10;99.90
8832;DHT22;4452;50.756;4.472;2023-05-16T08:43:21;11.00;99.90
8832;DHT22;4452;50.756;4.472;2023-05-16T08:45:47;10.90;99.90
8832;DHT22;4452;50.756;4.472;2023-05-16T08:48:14;11.10;99.90
8832;DHT22;4452;50.756;4.472;2023-05-16T08:50:41;11.60;99.90
8832;DHT22;4452;50.756;4.472;2023-05-16T08:53:11;11.90;99.90
8832;DHT22;4452;50.756;4.472;2023-05-16T08:55:40;11.80;99.90
8832;DHT22;4452;50.756;4.472;2023-05-16T08:58:07;12.30;99.90
8832;DHT22;4452;50.756;4.472;2023-05-16T09:00:34;12.70;99.90
8832;DHT22;4452;50.756;4.472;2023-05-16T09:03:00;12.90;99.90
8832;DHT22;4452;50.756;4.472;2023-05-16T09:05:28;12.90;99.90
8832;DHT22;4452;50.756;4.472;2023-05-16T09:07:54;12.90;99.90
8832;DHT22;4452;50.756;4.472;2023-05-16T09:10:20;12.90;99.90
8832;DHT22;4452;50.756;4.472;2023-05-16T09:12:46;12.60;99.90
8832;DHT22;4452;50.756;4.472;2023-05-16T09:15:11;13.20;99.90
8832;DHT22;4452;50.756;4.472;2023-05-16T09:17:41;13.30;99.90
8832;DHT22;4452;50.756;4.472;2023-05-16T09:20:15;12.90;99.90
8832;DHT22;4452;50.756;4.472;2023-05-16T09:22:58;12.50;99.90
8832;DHT22;4452;50.756;4.472;2023-05-16T09:25:26;12.50;99.90
8832;DHT22;4452;50.756;4.472;2023-05-16T09:27:56;12.50;99.90
8832;DHT22;4452;50.756;4.472;2023-05-16T09:30:22;12.70;99.90
8832;DHT22;4452;50.756;4.472;2023-05-16T09:32:52;13.10;99.90
8832;DHT22;4452;50.756;4.472;2023-05-16T09:35:19;13.10;99.90
8832;DHT22;4452;50.756;4.472;2023-05-16T09:37:46;13.50;99.90
8832;DHT22;4452;50.756;4.472;2023-05-16T09:40:12;13.70;99.90
8832;DHT22;4452;50.756;4.472;2023-05-16T09:42:38;13.80;99.90
8832;DHT22;4452;50.756;4.472;2023-05-16T09:45:04;14.00;99.90
8832;DHT22;4452;50.756;4.472;2023-05-16T09:47:30;14.20;99.90
8832;DHT22;4452;50.756;4.472;2023-05-16T09:49:56;14.90;99.90
8832;DHT22;4452;50.756;4.472;2023-05-16T09:52:22;14.70;99.90
8832;DHT22;4452;50.756;4.472;2023-05-16T09:54:50;14.90;99.90
8832;DHT22;4452;50.756;4.472;2023-05-16T09:57:22;14.70;99.90
8832;DHT22;4452;50.756;4.472;2023-05-16T09:59:51;14.60;99.90
8832;DHT22;4452;50.756;4.472;2023-05-16T10:02:17;14.20;99.90
8832;DHT22;4452;50.756;4.472;2023-05-16T10:04:43;14.00;99.90
8832;DHT22;4452;50.756;4.472;2023-05-16T10:07:09;13.80;99.90
8832;DHT22;4452;50.756;4.472;2023-05-16T10:09:35;13.60;99.90
8832;DHT22;4452;50.756;4.472;2023-05-16T10:12:04;13.80;99.90
8832;DHT22;4452;50.756;4.472;2023-05-16T10:14:36;13.90;99.90
8832;DHT22;4452;50.756;4.472;2023-05-16T10:17:05;14.70;99.90
8832;DHT22;4452;50.756;4.472;2023-05-16T10:19:36;15.00;99.90
8832;DHT22;4452;50.756;4.472;2023-05-16T10:22:05;14.80;99.90
8832;DHT22;4452;50.756;4.472;2023-05-16T10:24:50;14.70;99.90
8832;DHT22;4452;50.756;4.472;2023-05-16T10:27:16;14.40;99.90
8832;DHT22;4452;50.756;4.472;2023-05-16T10:29:43;13.80;99.90
8832;DHT22;4452;50.756;4.472;2023-05-16T10:32:09;13.50;99.90
8832;DHT22;4452;50.756;4.472;2023-05-16T10:34:36;13.60;99.90
8832;DHT22;4452;50.756;4.472;2023-05-16T10:37:04;14.20;99.90
8832;DHT22;4452;50.756;4.472;2023-05-16T10:39:31;14.40;99.90
8832;DHT22;4452;50.756;4.472;2023-05-16T10:41:57;14.90;99.90
8832;DHT22;4452;50.756;4.472;2023-05-16T10:44:24;14.70;99.90
8832;DHT22;4452;50.756;4.472;2023-05-16T10:46:50;15.10;99.90
8832;DHT22;4452;50.756;4.472;2023-05-16T10:49:24;15.10;99.90
8832;DHT22;4452;50.756;4.472;2023-05-16T10:54:35;14.50;99.90
8832;DHT22;4452;50.756;4.472;2023-05-16T10:57:15;14.00;99.90
8832;DHT22;4452;50.756;4.472;2023-05-16T10:59:45;14.50;99.90
8832;DHT22;4452;50.756;4.472;2023-05-16T11:02:41;14.60;99.90
8832;DHT22;4452;50.756;4.472;2023-05-16T11:05:13;15.00;99.90
8832;DHT22;4452;50.756;4.472;2023-05-16T11:07:42;15.70;99.90
8832;DHT22;4452;50.756;4.472;2023-05-16T11:12:46;16.20;99.90
8832;DHT22;4452;50.756;4.472;2023-05-16T11:15:26;15.60;99.90
8832;DHT22;4452;50.756;4.472;2023-05-16T11:18:08;15.20;99.90
8832;DHT22;4452;50.756;4.472;2023-05-16T11:20:37;15.00;99.90
8832;DHT22;4452;50.756;4.472;2023-05-16T11:25:49;14.60;99.90
8832;DHT22;4452;50.756;4.472;2023-05-16T11:28:16;14.10;99.90
8832;DHT22;4452;50.756;4.472;2023-05-16T11:30:47;14.00;99.90
8832;DHT22;4452;50.756;4.472;2023-05-16T11:33:17;14.00;99.90
8832;DHT22;4452;50.756;4.472;2023-05-16T11:35:44;14.40;99.90
8832;DHT22;4452;50.756;4.472;2023-05-16T11:38:23;14.80;99.90
8832;DHT22;4452;50.756;4.472;2023-05-16T11:40:49;14.90;99.90
8832;DHT22;4452;50.756;4.472;2023-05-16T11:43:17;15.30;99.90
8832;DHT22;4452;50.756;4.472;2023-05-16T11:45:43;16.00;99.90
8832;DHT22;4452;50.756;4.472;2023-05-16T11:48:10;15.90;99.90
8832;DHT22;4452;50.756;4.472;2023-05-16T11:50:36;15.50;99.90
8832;DHT22;4452;50.756;4.472;2023-05-16T11:53:02;15.70;99.90
8832;DHT22;4452;50.756;4.472;2023-05-16T11:55:29;15.80;99.90
8832;DHT22;4452;50.756;4.472;2023-05-16T11:57:58;15.10;99.90
8832;DHT22;4452;50.756;4.472;2023-05-16T12:00:25;15.20;99.90
8832;DHT22;4452;50.756;4.472;2023-05-16T12:02:53;14.90;99.90
8832;DHT22;4452;50.756;4.472;2023-05-16T12:05:20;14.50;99.90
8832;DHT22;4452;50.756;4.472;2023-05-16T12:07:50;14.60;99.90
8832;DHT22;4452;50.756;4.472;2023-05-16T12:10:19;14.70;99.90
8832;DHT22;4452;50.756;4.472;2023-05-16T12:12:48;14.90;99.90
8832;DHT22;4452;50.756;4.472;2023-05-16T12:15:17;15.10;99.90
8832;DHT22;4452;50.756;4.472;2023-05-16T12:17:43;15.80;99.90
8832;DHT22;4452;50.756;4.472;2023-05-16T12:20:10;15.20;99.90
8832;DHT22;4452;50.756;4.472;2023-05-16T12:22:42;15.90;99.90
8832;DHT22;4452;50.756;4.472;2023-05-16T12:25:33;15.90;99.90
8832;DHT22;4452;50.756;4.472;2023-05-16T12:28:03;16.20;99.90
8832;DHT22;4452;50.756;4.472;2023-05-16T12:30:32;15.10;99.90
8832;DHT22;4452;50.756;4.472;2023-05-16T12:33:02;15.40;99.90
8832;DHT22;4452;50.756;4.472;2023-05-16T12:35:30;15.00;99.90
8832;DHT22;4452;50.756;4.472;2023-05-16T12:37:56;15.00;99.90
8832;DHT22;4452;50.756;4.472;2023-05-16T12:40:22;14.80;99.90
8832;DHT22;4452;50.756;4.472;2023-05-16T12:42:49;14.80;99.90
8832;DHT22;4452;50.756;4.472;2023-05-16T12:45:16;15.00;99.90
8832;DHT22;4452;50.756;4.472;2023-05-16T12:47:43;15.30;99.90
8832;DHT22;4452;50.756;4.472;2023-05-16T12:50:13;15.30;99.90
8832;DHT22;4452;50.756;4.472;2023-05-16T12:52:49;15.30;99.90
8832;DHT22;4452;50.756;4.472;2023-05-16T12:55:16;15.30;99.90
8832;DHT22;4452;50.756;4.472;2023-05-16T12:57:43;15.30;99.90
8832;DHT22;4452;50.756;4.472;2023-05-16T13:00:11;15.30;99.90
8832;DHT22;4452;50.756;4.472;2023-05-16T13:02:37;15.10;99.90
8832;DHT22;4452;50.756;4.472;2023-05-16T13:05:03;14.80;99.90
8832;DHT22;4452;50.756;4.472;2023-05-16T13:07:29;15.00;99.90
8832;DHT22;4452;50.756;4.472;2023-05-16T13:09:55;15.10;99.90
8832;DHT22;4452;50.756;4.472;2023-05-16T13:12:21;15.00;99.90
8832;DHT22;4452;50.756;4.472;2023-05-16T13:14:51;15.00;99.90
8832;DHT22;4452;50.756;4.472;2023-05-16T13:17:17;15.50;99.90
8832;DHT22;4452;50.756;4.472;2023-05-16T13:19:43;16.10;99.90
8832;DHT22;4452;50.756;4.472;2023-05-16T13:22:08;17.00;99.90
8832;DHT22;4452;50.756;4.472;2023-05-16T13:24:34;16.50;99.90
8832;DHT22;4452;50.756;4.472;2023-05-16T13:27:00;16.90;99.90
8832;DHT22;4452;50.756;4.472;2023-05-16T13:29:26;16.40;99.90
8832;DHT22;4452;50.756;4.472;2023-05-16T13:31:51;16.40;99.90
8832;DHT22;4452;50.756;4.472;2023-05-16T13:34:17;17.20;99.90
8832;DHT22;4452;50.756;4.472;2023-05-16T13:36:43;16.50;99.90
8832;DHT22;4452;50.756;4.472;2023-05-16T13:39:10;16.20;99.90
8832;DHT22;4452;50.756;4.472;2023-05-16T13:41:38;15.60;99.90
8832;DHT22;4452;50.756;4.472;2023-05-16T13:44:05;15.40;99.90
8832;DHT22;4452;50.756;4.472;2023-05-16T13:46:31;15.60;99.90
8832;DHT22;4452;50.756;4.472;2023-05-16T13:48:57;16.70;99.90
8832;DHT22;4452;50.756;4.472;2023-05-16T13:51:24;17.50;99.90
8832;DHT22;4452;50.756;4.472;2023-05-16T13:53:50;17.20;99.90
8832;DHT22;4452;50.756;4.472;2023-05-16T13:56:16;17.20;99.90
8832;DHT22;4452;50.756;4.472;2023-05-16T13:58:42;16.60;99.90
8832;DHT22;4452;50.756;4.472;2023-05-16T14:01:08;16.60;99.90
8832;DHT22;4452;50.756;4.472;2023-05-16T14:03:33;16.10;99.90
8832;DHT22;4452;50.756;4.472;2023-05-16T14:06:01;16.80;99.90
8832;DHT22;4452;50.756;4.472;2023-05-16T14:08:27;16.90;99.90
8832;DHT22;4452;50.756;4.472;2023-05-16T14:10:53;16.70;99.90
8832;DHT22;4452;50.756;4.472;2023-05-16T14:13:20;15.90;99.90
8832;DHT22;4452;50.756;4.472;2023-05-16T14:15:49;15.70;99.90
8832;DHT22;4452;50.756;4.472;2023-05-16T14:18:17;15.60;99.90
8832;DHT22;4452;50.756;4.472;2023-05-16T14:20:45;15.50;99.90
8832;DHT22;4452;50.756;4.472;2023-05-16T14:23:13;15.30;99.90
8832;DHT22;4452;50.756;4.472;2023-05-16T14:25:41;15.10;99.90
8832;DHT22;4452;50.756;4.472;2023-05-16T14:28:11;15.20;99.90
8832;DHT22;4452;50.756;4.472;2023-05-16T14:30:37;15.50;99.90
8832;DHT22;4452;50.756;4.472;2023-05-16T14:33:03;16.20;99.90
8832;DHT22;4452;50.756;4.472;2023-05-16T14:35:31;16.60;99.90
8832;DHT22;4452;50.756;4.472;2023-05-16T14:37:57;16.00;99.90
8832;DHT22;4452;50.756;4.472;2023-05-16T14:40:23;16.50;99.90
8832;DHT22;4452;50.756;4.472;2023-05-16T14:42:48;17.50;99.90
8832;DHT22;4452;50.756;4.472;2023-05-16T14:45:15;18.20;99.90
8832;DHT22;4452;50.756;4.472;2023-05-16T14:47:42;18.70;99.90
8832;DHT22;4452;50.756;4.472;2023-05-16T14:50:08;18.40;99.90
8832;DHT22;4452;50.756;4.472;2023-05-16T14:52:38;18.40;99.90
8832;DHT22;4452;50.756;4.472;2023-05-16T14:55:04;18.20;99.90
8832;DHT22;4452;50.756;4.472;2023-05-16T14:57:31;17.50;99.90
8832;DHT22;4452;50.756;4.472;2023-05-16T14:59:57;17.50;99.90
8832;DHT22;4452;50.756;4.472;2023-05-16T15:02:23;16.40;99.90
8832;DHT22;4452;50.756;4.472;2023-05-16T15:04:49;17.10;99.90
8832;DHT22;4452;50.756;4.472;2023-05-16T15:07:14;17.60;99.90
8832;DHT22;4452;50.756;4.472;2023-05-16T15:09:40;18.10;99.90
8832;DHT22;4452;50.756;4.472;2023-05-16T15:12:06;17.20;99.90
8832;DHT22;4452;50.756;4.472;2023-05-16T15:14:33;17.50;99.90
8832;DHT22;4452;50.756;4.472;2023-05-16T15:16:58;18.10;99.90
8832;DHT22;4452;50.756;4.472;2023-05-16T15:19:24;18.80;99.90
8832;DHT22;4452;50.756;4.472;2023-05-16T15:21:50;18.20;99.90
8832;DHT22;4452;50.756;4.472;2023-05-16T15:24:16;17.60;99.90
8832;DHT22;4452;50.756;4.472;2023-05-16T15:26:42;16.90;99.90
8832;DHT22;4452;50.756;4.472;2023-05-16T15:29:08;16.40;99.90
8832;DHT22;4452;50.756;4.472;2023-05-16T15:31:33;17.40;99.90
8832;DHT22;4452;50.756;4.472;2023-05-16T15:33:59;18.10;99.90
8832;DHT22;4452;50.756;4.472;2023-05-16T15:36:25;17.80;99.90
8832;DHT22;4452;50.756;4.472;2023-05-16T15:38:51;16.90;99.90
8832;DHT22;4452;50.756;4.472;2023-05-16T15:41:18;16.50;99.90
8832;DHT22;4452;50.756;4.472;2023-05-16T15:43:47;16.40;99.90
8832;DHT22;4452;50.756;4.472;2023-05-16T15:46:14;16.50;99.90
8832;DHT22;4452;50.756;4.472;2023-05-16T15:48:42;15.80;99.90
8832;DHT22;4452;50.756;4.472;2023-05-16T15:51:11;16.80;99.90
8832;DHT22;4452;50.756;4.472;2023-05-16T15:53:38;18.10;99.90
8832;DHT22;4452;50.756;4.472;2023-05-16T15:56:07;19.20;99.90
8832;DHT22;4452;50.756;4.472;2023-05-16T15:58:35;18.80;99.90
8832;DHT22;4452;50.756;4.472;2023-05-16T16:01:01;18.00;99.90
8832;DHT22;4452;50.756;4.472;2023-05-16T16:03:28;18.30;99.90
8832;DHT22;4452;50.756;4.472;2023-05-16T16:05:54;17.90;99.90
8832;DHT22;4452;50.756;4.472;2023-05-16T16:08:20;17.90;99.90
8832;DHT22;4452;50.756;4.472;2023-05-16T16:10:46;18.60;99.90
8832;DHT22;4452;50.756;4.472;2023-05-16T16:13:11;18.60;99.90
8832;DHT22;4452;50.756;4.472;2023-05-16T16:15:37;19.00;99.90
8832;DHT22;4452;50.756;4.472;2023-05-16T16:18:03;18.90;99.90
8832;DHT22;4452;50.756;4.472;2023-05-16T16:20:31;19.60;99.90
8832;DHT22;4452;50.756;4.472;2023-05-16T16:22:57;19.40;99.90
8832;DHT22;4452;50.756;4.472;2023-05-16T16:25:22;19.70;99.90
8832;DHT22;4452;50.756;4.472;2023-05-16T16:27:49;18.20;99.90